Time,TemperatureF,DewpointF,PressureIn,WindDirection,WindDirectionDegrees,WindSpeedMPH,WindSpeedGustMPH,Humidity,HourlyPrecipIn,Conditions,Clouds,dailyrainin,SoftwareType,DateUTC
2013-06-28 00:01:00,58.0,-99.9,30.06,NNW,328,6.0,10.0,-999,-99.99,,,-99.99,,2013-06-28 07:01:00,
2013-06-28 00:12:00,58.0,-99.9,30.06,NW,314,8.0,10.0,-999,-99.99,,,-99.99,,2013-06-28 07:12:00,
2013-06-28 00:33:00,59.0,-99.9,30.06,NW,319,10.0,15.0,-999,-99.99,,,-99.99,,2013-06-28 07:33:00,
2013-06-28 00:43:00,59.0,-99.9,30.06,NW,318,11.0,15.0,-999,-99.99,,,-99.99,,2013-06-28 07:43:00,
2013-06-28 00:52:00,59.0,-99.9,30.06,NW,318,11.0,15.0,-999,-99.99,,,-99.99,,2013-06-28 07:52:00,
2013-06-28 01:02:00,59.0,-99.9,30.05,NW,314,13.0,18.0,-999,-99.99,,,-99.99,,2013-06-28 08:02:00,
2013-06-28 01:11:00,59.0,-99.9,30.06,NW,324,10.0,16.0,-999,-99.99,,,-99.99,,2013-06-28 08:11:00,
2013-06-28 01:33:00,59.0,-99.9,30.06,NW,316,11.0,15.0,-999,-99.99,,,-99.99,,2013-06-28 08:33:00,
2013-06-28 01:43:00,59.0,-99.9,30.06,NW,317,11.0,14.0,-999,-99.99,,,-99.99,,2013-06-28 08:43:00,
2013-06-28 01:52:00,58.0,-99.9,30.05,NW,322,9.0,13.0,-999,-99.99,,,-99.99,,2013-06-28 08:52:00,
2013-06-28 02:02:00,59.0,-99.9,30.05,NW,314,9.0,16.0,-999,-99.99,,,-99.99,,2013-06-28 09:02:00,
2013-06-28 02:11:00,59.0,-99.9,30.05,NW,312,14.0,19.0,-999,-99.99,,,-99.99,,2013-06-28 09:11:00,
2013-06-28 02:33:00,59.0,-99.9,30.04,WNW,299,17.0,26.0,-999,-99.99,,,-99.99,,2013-06-28 09:33:00,
2013-06-28 02:42:00,59.0,-99.9,30.04,WNW,297,20.0,26.0,-999,-99.99,,,-99.99,,2013-06-28 09:42:00,
2013-06-28 02:52:00,59.0,-99.9,30.04,WNW,295,20.0,25.0,-999,-99.99,,,-99.99,,2013-06-28 09:52:00,
2013-06-28 03:02:00,59.0,-99.9,30.03,WNW,292,20.0,27.0,-999,-99.99,,,-99.99,,2013-06-28 10:02:00,
2013-06-28 03:12:00,59.0,-99.9,30.03,WNW,296,20.0,26.0,-999,-99.99,,,-99.99,,2013-06-28 10:12:00,
2013-06-28 03:33:00,59.0,-99.9,30.03,WNW,297,20.0,26.0,-999,-99.99,,,-99.99,,2013-06-28 10:33:00,
2013-06-28 03:42:00,59.0,-99.9,30.03,WNW,300,20.0,27.0,-999,-99.99,,,-99.99,,2013-06-28 10:42:00,
2013-06-28 03:52:00,58.0,-99.9,30.03,WNW,302,18.0,23.0,-999,-99.99,,,-99.99,,2013-06-28 10:52:00,
2013-06-28 04:02:00,58.0,-99.9,30.03,WNW,303,17.0,22.0,-999,-99.99,,,-99.99,,2013-06-28 11:02:00,
2013-06-28 04:11:00,58.0,-99.9,30.03,NW,313,14.0,20.0,-999,-99.99,,,-99.99,,2013-06-28 11:11:00,
2013-06-28 04:34:00,57.0,-99.9,30.03,NW,315,12.0,16.0,-999,-99.99,,,-99.99,,2013-06-28 11:34:00,
2013-06-28 04:43:00,57.0,-99.9,30.02,NW,314,15.0,18.0,-999,-99.99,,,-99.99,,2013-06-28 11:43:00,
2013-06-28 04:53:00,57.0,-99.9,30.02,NW,318,14.0,19.0,-999,-99.99,,,-99.99,,2013-06-28 11:53:00,
2013-06-28 05:02:00,57.0,-99.9,30.02,NW,313,16.0,21.0,-999,-99.99,,,-99.99,,2013-06-28 12:02:00,
2013-06-28 05:12:00,57.0,-99.9,30.01,NW,314,17.0,23.0,-999,-99.99,,,-99.99,,2013-06-28 12:12:00,
2013-06-28 05:34:00,56.0,-99.9,30.01,NW,308,23.0,28.0,-999,-99.99,,,-99.99,,2013-06-28 12:34:00,
2013-06-28 05:43:00,56.0,-99.9,30.01,NW,311,18.0,26.0,-999,-99.99,,,-99.99,,2013-06-28 12:43:00,
2013-06-28 05:52:00,56.0,-99.9,30.01,NW,314,20.0,25.0,-999,-99.99,,,-99.99,,2013-06-28 12:52:00,
2013-06-28 06:02:00,55.0,-99.9,30.01,NW,316,20.0,25.0,-999,-99.99,,,-99.99,,2013-06-28 13:02:00,
2013-06-28 06:23:00,55.0,-99.9,30.01,NW,310,23.0,28.0,-999,-99.99,,,-99.99,,2013-06-28 13:23:00,
2013-06-28 06:43:00,55.0,-99.9,30.01,NW,305,24.0,30.0,-999,-99.99,,,-99.99,,2013-06-28 13:43:00,
2013-06-28 07:02:00,55.0,-99.9,30.01,NW,306,25.0,29.0,-999,-99.99,,,-99.99,,2013-06-28 14:02:00,
2013-06-28 07:33:00,54.0,-99.9,30.03,NW,318,13.0,19.0,-999,-99.99,,,-99.99,,2013-06-28 14:33:00,
2013-06-28 07:44:00,54.0,-99.9,30.03,NW,317,14.0,17.0,-999,-99.99,,,-99.99,,2013-06-28 14:44:00,
2013-06-28 07:53:00,54.0,-99.9,30.03,NW,318,13.0,17.0,-999,-99.99,,,-99.99,,2013-06-28 14:53:00,
2013-06-28 08:02:00,54.0,-99.9,30.03,NW,312,11.0,18.0,-999,-99.99,,,-99.99,,2013-06-28 15:02:00,
2013-06-28 08:34:00,55.0,-99.9,30.04,NW,321,11.0,14.0,-999,-99.99,,,-99.99,,2013-06-28 15:34:00,
2013-06-28 08:43:00,55.0,-99.9,30.04,NW,317,9.0,13.0,-999,-99.99,,,-99.99,,2013-06-28 15:43:00,
2013-06-28 08:52:00,55.0,-99.9,30.04,NW,316,11.0,14.0,-999,-99.99,,,-99.99,,2013-06-28 15:52:00,
2013-06-28 09:02:00,55.0,-99.9,30.04,NW,317,11.0,15.0,-999,-99.99,,,-99.99,,2013-06-28 16:02:00,
2013-06-28 09:11:00,55.0,-99.9,30.04,NW,310,11.0,15.0,-999,-99.99,,,-99.99,,2013-06-28 16:11:00,
2013-06-28 09:33:00,55.0,-99.9,30.04,NW,320,12.0,15.0,-999,-99.99,,,-99.99,,2013-06-28 16:33:00,
2013-06-28 09:44:00,55.0,-99.9,30.04,NW,319,13.0,14.0,-999,-99.99,,,-99.99,,2013-06-28 16:44:00,
2013-06-28 09:53:00,55.0,-99.9,30.04,NW,314,12.0,14.0,-999,-99.99,,,-99.99,,2013-06-28 16:53:00,
2013-06-28 10:02:00,55.0,-99.9,30.04,NW,305,11.0,15.0,-999,-99.99,,,-99.99,,2013-06-28 17:02:00,
2013-06-28 10:11:00,55.0,-99.9,30.04,NW,308,12.0,14.0,-999,-99.99,,,-99.99,,2013-06-28 17:11:00,
2013-06-28 10:33:00,55.0,-99.9,30.03,NW,306,13.0,17.0,-999,-99.99,,,-99.99,,2013-06-28 17:33:00,
2013-06-28 10:44:00,55.0,-99.9,30.04,WNW,296,12.0,16.0,-999,-99.99,,,-99.99,,2013-06-28 17:44:00,
2013-06-28 10:52:00,55.0,-99.9,30.04,NW,311,13.0,17.0,-999,-99.99,,,-99.99,,2013-06-28 17:52:00,
2013-06-28 11:02:00,56.0,-99.9,30.04,NW,309,13.0,16.0,-999,-99.99,,,-99.99,,2013-06-28 18:02:00,
2013-06-28 11:12:00,56.0,-99.9,30.04,NW,311,13.0,18.0,-999,-99.99,,,-99.99,,2013-06-28 18:12:00,
2013-06-28 11:22:00,56.0,-99.9,30.04,NW,311,13.0,18.0,-999,-99.99,,,-99.99,,2013-06-28 18:22:00,
2013-06-28 11:43:00,56.0,-99.9,30.04,WNW,302,11.0,17.0,-999,-99.99,,,-99.99,,2013-06-28 18:43:00,
2013-06-28 11:52:00,56.0,-99.9,30.04,WNW,303,12.0,16.0,-999,-99.99,,,-99.99,,2013-06-28 18:52:00,
2013-06-28 12:01:00,56.0,-99.9,30.04,NW,314,16.0,20.0,-999,-99.99,,,-99.99,,2013-06-28 19:01:00,
2013-06-28 12:33:00,56.0,-99.9,30.04,NW,320,13.0,21.0,-999,-99.99,,,-99.99,,2013-06-28 19:33:00,
2013-06-28 12:43:00,57.0,-99.9,30.04,NW,317,16.0,21.0,-999,-99.99,,,-99.99,,2013-06-28 19:43:00,
2013-06-28 12:53:00,57.0,-99.9,30.04,NW,317,13.0,18.0,-999,-99.99,,,-99.99,,2013-06-28 19:53:00,
2013-06-28 13:02:00,57.0,-99.9,30.04,NW,317,13.0,18.0,-999,-99.99,,,-99.99,,2013-06-28 20:02:00,
2013-06-28 13:11:00,58.0,-99.9,30.04,NW,316,13.0,17.0,-999,-99.99,,,-99.99,,2013-06-28 20:11:00,
2013-06-28 13:33:00,58.0,-99.9,30.04,NW,316,13.0,18.0,-999,-99.99,,,-99.99,,2013-06-28 20:33:00,
2013-06-28 13:43:00,58.0,-99.9,30.04,NW,307,12.0,16.0,-999,-99.99,,,-99.99,,2013-06-28 20:43:00,
2013-06-28 14:02:00,58.0,-99.9,30.04,NW,322,13.0,17.0,-999,-99.99,,,-99.99,,2013-06-28 21:02:00,
2013-06-28 14:11:00,58.0,-99.9,30.03,NW,318,11.0,14.0,-999,-99.99,,,-99.99,,2013-06-28 21:11:00,
2013-06-28 14:34:00,59.0,-99.9,30.02,NW,323,13.0,17.0,-999,-99.99,,,-99.99,,2013-06-28 21:34:00,
2013-06-28 14:43:00,59.0,-99.9,30.02,NW,325,9.0,15.0,-999,-99.99,,,-99.99,,2013-06-28 21:43:00,
2013-06-28 14:53:00,59.0,-99.9,30.02,NW,313,13.0,17.0,-999,-99.99,,,-99.99,,2013-06-28 21:53:00,
2013-06-28 15:01:00,59.0,-99.9,30.01,NW,319,13.0,19.0,-999,-99.99,,,-99.99,,2013-06-28 22:01:00,
2013-06-28 15:11:00,60.0,-99.9,30.01,NW,314,13.0,20.0,-999,-99.99,,,-99.99,,2013-06-28 22:11:00,
2013-06-28 15:34:00,61.0,-99.9,30.01,NW,313,11.0,15.0,-999,-99.99,,,-99.99,,2013-06-28 22:34:00,
2013-06-28 15:43:00,61.0,-99.9,30.00,NW,318,13.0,20.0,-999,-99.99,,,-99.99,,2013-06-28 22:43:00,
2013-06-28 15:53:00,61.0,-99.9,30.00,NW,313,14.0,19.0,-999,-99.99,,,-99.99,,2013-06-28 22:53:00,
2013-06-28 16:02:00,61.0,-99.9,29.99,NW,310,17.0,23.0,-999,-99.99,,,-99.99,,2013-06-28 23:02:00,
2013-06-28 16:23:00,61.0,-99.9,29.99,NW,310,15.0,25.0,-999,-99.99,,,-99.99,,2013-06-28 23:23:00,
2013-06-28 16:34:00,61.0,-99.9,29.98,NW,311,15.0,20.0,-999,-99.99,,,-99.99,,2013-06-28 23:34:00,
2013-06-28 16:43:00,62.0,-99.9,29.98,NW,308,13.0,18.0,-999,-99.99,,,-99.99,,2013-06-28 23:43:00,
2013-06-28 16:53:00,62.0,-99.9,29.97,WNW,302,17.0,22.0,-999,-99.99,,,-99.99,,2013-06-28 23:53:00,
2013-06-28 17:02:00,62.0,-99.9,29.97,WNW,302,18.0,23.0,-999,-99.99,,,-99.99,,2013-06-29 00:02:00,
2013-06-28 17:33:00,63.0,-99.9,29.96,WNW,303,15.0,20.0,-999,-99.99,,,-99.99,,2013-06-29 00:33:00,
2013-06-28 17:42:00,63.0,-99.9,29.96,WNW,296,18.0,22.0,-999,-99.99,,,-99.99,,2013-06-29 00:42:00,
2013-06-28 17:52:00,63.0,-99.9,29.95,WNW,294,18.0,23.0,-999,-99.99,,,-99.99,,2013-06-29 00:52:00,
2013-06-28 18:01:00,63.0,-99.9,29.95,WNW,295,17.0,25.0,-999,-99.99,,,-99.99,,2013-06-29 01:01:00,
2013-06-28 18:11:00,63.0,-99.9,29.95,WNW,287,22.0,30.0,-999,-99.99,,,-99.99,,2013-06-29 01:11:00,
2013-06-28 18:32:00,62.0,-99.9,29.95,WNW,291,26.0,30.0,-999,-99.99,,,-99.99,,2013-06-29 01:32:00,
2013-06-28 18:42:00,62.0,-99.9,29.95,WNW,291,23.0,29.0,-999,-99.99,,,-99.99,,2013-06-29 01:42:00,
2013-06-28 18:52:00,62.0,-99.9,29.95,WNW,300,21.0,26.0,-999,-99.99,,,-99.99,,2013-06-29 01:52:00,
2013-06-28 19:01:00,61.0,-99.9,29.95,WNW,303,20.0,24.0,-999,-99.99,,,-99.99,,2013-06-29 02:01:00,
2013-06-28 19:11:00,61.0,-99.9,29.94,WNW,303,23.0,27.0,-999,-99.99,,,-99.99,,2013-06-29 02:11:00,
2013-06-28 19:31:00,61.0,-99.9,29.94,WNW,296,22.0,27.0,-999,-99.99,,,-99.99,,2013-06-29 02:31:00,
2013-06-28 19:41:00,60.0,-99.9,29.94,WNW,293,23.0,28.0,-999,-99.99,,,-99.99,,2013-06-29 02:41:00,
2013-06-28 20:01:00,61.0,-99.9,29.94,WNW,286,23.0,26.0,-999,-99.99,,,-99.99,,2013-06-29 03:01:00,
2013-06-28 20:21:00,60.0,-99.9,29.94,WNW,285,21.0,27.0,-999,-99.99,,,-99.99,,2013-06-29 03:21:00,
2013-06-28 20:32:00,60.0,-99.9,29.94,WNW,285,23.0,28.0,-999,-99.99,,,-99.99,,2013-06-29 03:32:00,
2013-06-28 20:51:00,60.0,-99.9,29.94,WNW,287,20.0,26.0,-999,-99.99,,,-99.99,,2013-06-29 03:51:00,
2013-06-28 21:01:00,60.0,-99.9,29.94,WNW,294,20.0,25.0,-999,-99.99,,,-99.99,,2013-06-29 04:01:00,
2013-06-28 21:11:00,60.0,-99.9,29.94,WNW,294,20.0,25.0,-999,-99.99,,,-99.99,,2013-06-29 04:11:00,
2013-06-28 21:32:00,61.0,-99.9,29.94,WNW,298,21.0,26.0,-999,-99.99,,,-99.99,,2013-06-29 04:32:00,
2013-06-28 21:41:00,61.0,-99.9,29.94,WNW,298,21.0,26.0,-999,-99.99,,,-99.99,,2013-06-29 04:41:00,
2013-06-28 22:01:00,61.0,-99.9,29.95,WNW,299,23.0,27.0,-999,-99.99,,,-99.99,,2013-06-29 05:01:00,
2013-06-28 22:11:00,60.0,-99.9,29.95,WNW,298,25.0,28.0,-999,-99.99,,,-99.99,,2013-06-29 05:11:00,
2013-06-28 22:42:00,60.0,-99.9,29.96,WNW,292,25.0,32.0,-999,-99.99,,,-99.99,,2013-06-29 05:42:00,
2013-06-28 22:52:00,60.0,-99.9,29.96,WNW,293,26.0,31.0,-999,-99.99,,,-99.99,,2013-06-29 05:52:00,
2013-06-28 23:01:00,60.0,-99.9,29.96,WNW,298,23.0,30.0,-999,-99.99,,,-99.99,,2013-06-29 06:01:00,
2013-06-28 23:12:00,60.0,-99.9,29.96,WNW,297,24.0,29.0,-999,-99.99,,,-99.99,,2013-06-29 06:12:00,
2013-06-28 23:43:00,59.0,-99.9,29.95,NW,307,21.0,26.0,-999,-99.99,,,-99.99,,2013-06-29 06:43:00,
2013-06-28 23:53:00,59.0,-99.9,29.95,WNW,300,22.0,25.0,-999,-99.99,,,-99.99,,2013-06-29 06:53:00,